Overview Statistics Trail Chart Weather Telemetry Raw packets
 

This is the latest recevied weather packets stored in our database for station/object LRTR. If no packets are shown the sender has not sent any weather packets the latest 10 day(s).

<< 30 31 32 33 34 35 36 >>
Time Temp. Humidity Pressure Rain* Wind** Luminosity Snow
1777008785 6.11° C 81% 1014 hPa - - - -
1777007898 3.89° C 93% 1014 hPa - - - -
1777006985 3.89° C 93% 1014 hPa - - - -
1777006085 2.22° C 93% 1014 hPa - - - -
1777005185 2.22° C 93% 1014 hPa - - - -
1777004285 0° C 100% 1014 hPa - - - -
1777003385 0° C 100% 1014 hPa - - - -
1777002485 1.11° C 100% 1013 hPa - - - -
1777001585 1.11° C 100% 1013 hPa - - - -
1777000685 1.11° C 100% 1013 hPa - - - -
1776999785 1.11° C 100% 1013 hPa - - - -
1776998885 2.22° C 93% 1013 hPa - - - -
1776997985 2.22° C 93% 1013 hPa - - - -
1776997085 2.22° C 93% 1013 hPa - - - -
1776996185 2.22° C 93% 1013 hPa - - - -
1776995285 2.78° C 87% 1013 hPa - - - -
1776994385 2.78° C 87% 1013 hPa - - - -
1776993486 3.89° C 81% 1013 hPa - - - -
1776992585 3.89° C 81% 1013 hPa - - - -
1776991686 3.89° C 81% 1013 hPa - - - -
1776990787 3.89° C 81% 1013 hPa - - - -
1776989886 3.89° C 81% 1013 hPa - - - -
1776988985 3.89° C 81% 1013 hPa - - - -
1776988085 5° C 70% 1013 hPa - - - -
1776987185 5° C 70% 1013 hPa - - - -

* Rain since midnight (hover to see other rain measurements)
** Current wind speed in m/s (hover to see current wind gust speed)